sensor_id;sensor_type;location;lat;lon;timestamp;temperature;humidity
1644;DHT22;46825;51.99869940;8.49421771;2023-11-19T00:00:00;8.40;99.90
1644;DHT22;46825;51.99869940;8.49421771;2023-11-19T00:01:01;8.50;99.90
1644;DHT22;46825;51.99869940;8.49421771;2023-11-19T00:02:02;9.20;99.90
1644;DHT22;46825;51.99869940;8.49421771;2023-11-19T00:03:02;8.50;99.90
1644;DHT22;46825;51.99869940;8.49421771;2023-11-19T00:04:03;8.50;99.90
1644;DHT22;46825;51.99869940;8.49421771;2023-11-19T00:05:05;8.50;99.90
1644;DHT22;46825;51.99869940;8.49421771;2023-11-19T00:06:09;8.60;99.90
1644;DHT22;46825;51.99869940;8.49421771;2023-11-19T00:07:11;8.60;99.90
1644;DHT22;46825;51.99869940;8.49421771;2023-11-19T00:08:13;8.60;99.90
1644;DHT22;46825;51.99869940;8.49421771;2023-11-19T00:09:14;9.10;99.90
1644;DHT22;46825;51.99869940;8.49421771;2023-11-19T00:10:17;8.60;99.90
1644;DHT22;46825;51.99869940;8.49421771;2023-11-19T00:11:21;11.70;99.90
1644;DHT22;46825;51.99869940;8.49421771;2023-11-19T00:12:21;8.60;99.90
1644;DHT22;46825;51.99869940;8.49421771;2023-11-19T00:13:22;10.70;99.90
1644;DHT22;46825;51.99869940;8.49421771;2023-11-19T00:14:23;8.70;99.90
1644;DHT22;46825;51.99869940;8.49421771;2023-11-19T00:15:25;8.70;99.90
1644;DHT22;46825;51.99869940;8.49421771;2023-11-19T00:16:26;8.70;99.90
1644;DHT22;46825;51.99869940;8.49421771;2023-11-19T00:17:27;8.70;99.90
1644;DHT22;46825;51.99869940;8.49421771;2023-11-19T00:18:27;8.70;99.90
1644;DHT22;46825;51.99869940;8.49421771;2023-11-19T00:19:28;8.70;99.90
1644;DHT22;46825;51.99869940;8.49421771;2023-11-19T00:20:28;8.70;99.90
1644;DHT22;46825;51.99869940;8.49421771;2023-11-19T00:21:29;8.70;99.90
1644;DHT22;46825;51.99869940;8.49421771;2023-11-19T00:22:29;8.70;99.90
1644;DHT22;46825;51.99869940;8.49421771;2023-11-19T00:23:30;8.70;99.90
1644;DHT22;46825;51.99869940;8.49421771;2023-11-19T00:24:31;8.80;99.90
1644;DHT22;46825;51.99869940;8.49421771;2023-11-19T00:25:32;8.80;99.90
1644;DHT22;46825;51.99869940;8.49421771;2023-11-19T00:26:32;8.70;99.90
1644;DHT22;46825;51.99869940;8.49421771;2023-11-19T00:27:33;8.90;99.90
1644;DHT22;46825;51.99869940;8.49421771;2023-11-19T00:28:33;8.80;99.90
1644;DHT22;46825;51.99869940;8.49421771;2023-11-19T00:29:34;8.80;99.90
1644;DHT22;46825;51.99869940;8.49421771;2023-11-19T00:30:35;8.80;99.90
1644;DHT22;46825;51.99869940;8.49421771;2023-11-19T00:31:36;8.80;99.90
1644;DHT22;46825;51.99869940;8.49421771;2023-11-19T00:32:36;8.90;99.90
1644;DHT22;46825;51.99869940;8.49421771;2023-11-19T00:33:39;8.80;99.90
1644;DHT22;46825;51.99869940;8.49421771;2023-11-19T00:34:40;8.80;99.90
1644;DHT22;46825;51.99869940;8.49421771;2023-11-19T00:35:41;8.80;99.90
1644;DHT22;46825;51.99869940;8.49421771;2023-11-19T00:36:41;8.80;99.90
1644;DHT22;46825;51.99869940;8.49421771;2023-11-19T00:37:42;8.90;99.90
1644;DHT22;46825;51.99869940;8.49421771;2023-11-19T00:38:43;8.80;99.90
1644;DHT22;46825;51.99869940;8.49421771;2023-11-19T00:39:44;9.00;99.90
1644;DHT22;46825;51.99869940;8.49421771;2023-11-19T00:40:44;8.90;99.90
1644;DHT22;46825;51.99869940;8.49421771;2023-11-19T00:41:45;8.90;99.90
1644;DHT22;46825;51.99869940;8.49421771;2023-11-19T00:42:46;8.90;99.90
1644;DHT22;46825;51.99869940;8.49421771;2023-11-19T00:43:47;8.90;99.90
1644;DHT22;46825;51.99869940;8.49421771;2023-11-19T00:44:49;8.90;99.90
1644;DHT22;46825;51.99869940;8.49421771;2023-11-19T00:45:50;8.90;99.90
1644;DHT22;46825;51.99869940;8.49421771;2023-11-19T00:46:51;8.90;99.90
1644;DHT22;46825;51.99869940;8.49421771;2023-11-19T00:47:51;9.00;99.90
1644;DHT22;46825;51.99869940;8.49421771;2023-11-19T00:48:52;8.90;99.90
1644;DHT22;46825;51.99869940;8.49421771;2023-11-19T00:49:53;9.00;99.90
1644;DHT22;46825;51.99869940;8.49421771;2023-11-19T00:50:53;9.00;99.90
1644;DHT22;46825;51.99869940;8.49421771;2023-11-19T00:51:54;9.00;99.90
1644;DHT22;46825;51.99869940;8.49421771;2023-11-19T00:52:55;9.00;99.90
1644;DHT22;46825;51.99869940;8.49421771;2023-11-19T00:53:55;9.10;99.90
1644;DHT22;46825;51.99869940;8.49421771;2023-11-19T00:54:56;9.10;99.90
1644;DHT22;46825;51.99869940;8.49421771;2023-11-19T00:55:57;9.10;99.90
1644;DHT22;46825;51.99869940;8.49421771;2023-11-19T00:56:58;9.10;99.90
1644;DHT22;46825;51.99869940;8.49421771;2023-11-19T00:57:58;9.10;99.90
1644;DHT22;46825;51.99869940;8.49421771;2023-11-19T00:58:59;9.10;99.90
1644;DHT22;46825;51.99869940;8.49421771;2023-11-19T01:00:00;9.10;99.90
1644;DHT22;46825;51.99869940;8.49421771;2023-11-19T01:01:01;9.10;99.90
1644;DHT22;46825;51.99869940;8.49421771;2023-11-19T01:02:01;9.10;99.90
1644;DHT22;46825;51.99869940;8.49421771;2023-11-19T01:03:06;9.20;99.90
1644;DHT22;46825;51.99869940;8.49421771;2023-11-19T01:04:07;9.20;99.90
1644;DHT22;46825;51.99869940;8.49421771;2023-11-19T01:05:08;9.20;99.90
1644;DHT22;46825;51.99869940;8.49421771;2023-11-19T01:06:09;9.20;99.90
1644;DHT22;46825;51.99869940;8.49421771;2023-11-19T01:07:10;9.20;99.90
1644;DHT22;46825;51.99869940;8.49421771;2023-11-19T01:08:13;9.20;99.90
1644;DHT22;46825;51.99869940;8.49421771;2023-11-19T01:09:15;9.20;99.90
1644;DHT22;46825;51.99869940;8.49421771;2023-11-19T01:10:15;9.30;99.90
1644;DHT22;46825;51.99869940;8.49421771;2023-11-19T01:11:20;9.20;99.90
1644;DHT22;46825;51.99869940;8.49421771;2023-11-19T01:12:21;9.20;99.90
1644;DHT22;46825;51.99869940;8.49421771;2023-11-19T01:13:22;9.30;99.90
1644;DHT22;46825;51.99869940;8.49421771;2023-11-19T01:14:23;9.20;99.90
1644;DHT22;46825;51.99869940;8.49421771;2023-11-19T01:15:24;9.30;99.90
1644;DHT22;46825;51.99869940;8.49421771;2023-11-19T01:16:26;9.30;99.90
1644;DHT22;46825;51.99869940;8.49421771;2023-11-19T01:17:26;9.30;99.90
1644;DHT22;46825;51.99869940;8.49421771;2023-11-19T01:18:27;9.30;99.90
1644;DHT22;46825;51.99869940;8.49421771;2023-11-19T01:19:28;9.30;99.90
1644;DHT22;46825;51.99869940;8.49421771;2023-11-19T01:20:28;9.30;99.90
1644;DHT22;46825;51.99869940;8.49421771;2023-11-19T01:21:29;9.40;99.90
1644;DHT22;46825;51.99869940;8.49421771;2023-11-19T01:22:30;9.40;99.90
1644;DHT22;46825;51.99869940;8.49421771;2023-11-19T01:23:31;9.40;99.90
1644;DHT22;46825;51.99869940;8.49421771;2023-11-19T01:24:31;9.40;99.90
1644;DHT22;46825;51.99869940;8.49421771;2023-11-19T01:25:32;9.40;99.90
1644;DHT22;46825;51.99869940;8.49421771;2023-11-19T01:26:32;9.80;99.90
1644;DHT22;46825;51.99869940;8.49421771;2023-11-19T01:27:33;9.40;99.90
1644;DHT22;46825;51.99869940;8.49421771;2023-11-19T01:28:37;9.60;99.90
1644;DHT22;46825;51.99869940;8.49421771;2023-11-19T01:29:39;9.40;99.90
1644;DHT22;46825;51.99869940;8.49421771;2023-11-19T01:30:40;9.40;99.90
1644;DHT22;46825;51.99869940;8.49421771;2023-11-19T01:31:42;9.40;99.90
1644;DHT22;46825;51.99869940;8.49421771;2023-11-19T01:32:42;9.40;99.90
1644;DHT22;46825;51.99869940;8.49421771;2023-11-19T01:33:43;9.50;99.90
1644;DHT22;46825;51.99869940;8.49421771;2023-11-19T01:34:44;9.50;99.90
1644;DHT22;46825;51.99869940;8.49421771;2023-11-19T01:35:44;9.50;99.90
1644;DHT22;46825;51.99869940;8.49421771;2023-11-19T01:36:46;9.50;99.90
1644;DHT22;46825;51.99869940;8.49421771;2023-11-19T01:37:48;9.50;99.90
1644;DHT22;46825;51.99869940;8.49421771;2023-11-19T01:38:50;9.50;99.90
1644;DHT22;46825;51.99869940;8.49421771;2023-11-19T01:39:51;9.50;99.90
1644;DHT22;46825;51.99869940;8.49421771;2023-11-19T01:40:56;9.50;99.90
1644;DHT22;46825;51.99869940;8.49421771;2023-11-19T01:41:57;9.50;99.90
1644;DHT22;46825;51.99869940;8.49421771;2023-11-19T01:42:58;9.50;99.90
1644;DHT22;46825;51.99869940;8.49421771;2023-11-19T01:43:58;9.60;99.90
1644;DHT22;46825;51.99869940;8.49421771;2023-11-19T01:44:59;9.60;99.90
1644;DHT22;46825;51.99869940;8.49421771;2023-11-19T01:46:05;9.60;99.90
1644;DHT22;46825;51.99869940;8.49421771;2023-11-19T01:47:08;9.60;99.90
1644;DHT22;46825;51.99869940;8.49421771;2023-11-19T01:48:09;9.60;99.90
1644;DHT22;46825;51.99869940;8.49421771;2023-11-19T01:49:13;9.80;99.90
1644;DHT22;46825;51.99869940;8.49421771;2023-11-19T01:50:14;9.60;99.90
1644;DHT22;46825;51.99869940;8.49421771;2023-11-19T01:51:15;9.60;99.90
1644;DHT22;46825;51.99869940;8.49421771;2023-11-19T01:52:17;9.60;99.90
1644;DHT22;46825;51.99869940;8.49421771;2023-11-19T01:53:18;9.80;99.90
1644;DHT22;46825;51.99869940;8.49421771;2023-11-19T01:54:19;9.70;99.90
1644;DHT22;46825;51.99869940;8.49421771;2023-11-19T01:55:21;9.90;99.90
1644;DHT22;46825;51.99869940;8.49421771;2023-11-19T01:56:23;9.60;99.90
1644;DHT22;46825;51.99869940;8.49421771;2023-11-19T01:57:25;9.60;99.90
1644;DHT22;46825;51.99869940;8.49421771;2023-11-19T01:58:26;9.60;99.90
1644;DHT22;46825;51.99869940;8.49421771;2023-11-19T01:59:27;9.60;99.90
1644;DHT22;46825;51.99869940;8.49421771;2023-11-19T02:00:28;9.70;99.90
1644;DHT22;46825;51.99869940;8.49421771;2023-11-19T02:01:29;9.60;99.90
1644;DHT22;46825;51.99869940;8.49421771;2023-11-19T02:02:30;9.60;99.90
1644;DHT22;46825;51.99869940;8.49421771;2023-11-19T02:03:31;9.80;99.90
1644;DHT22;46825;51.99869940;8.49421771;2023-11-19T02:04:33;9.70;99.90
1644;DHT22;46825;51.99869940;8.49421771;2023-11-19T02:05:34;9.70;99.90
1644;DHT22;46825;51.99869940;8.49421771;2023-11-19T02:06:38;9.70;99.90
1644;DHT22;46825;51.99869940;8.49421771;2023-11-19T02:07:41;9.70;99.90
1644;DHT22;46825;51.99869940;8.49421771;2023-11-19T02:08:42;10.10;99.90
1644;DHT22;46825;51.99869940;8.49421771;2023-11-19T02:09:44;9.70;99.90
1644;DHT22;46825;51.99869940;8.49421771;2023-11-19T02:10:44;9.70;99.90
1644;DHT22;46825;51.99869940;8.49421771;2023-11-19T02:11:45;9.70;99.90
1644;DHT22;46825;51.99869940;8.49421771;2023-11-19T02:12:50;9.70;99.90
1644;DHT22;46825;51.99869940;8.49421771;2023-11-19T02:13:50;9.80;99.90
1644;DHT22;46825;51.99869940;8.49421771;2023-11-19T02:14:51;9.70;99.90
1644;DHT22;46825;51.99869940;8.49421771;2023-11-19T02:15:52;9.80;99.90
1644;DHT22;46825;51.99869940;8.49421771;2023-11-19T02:16:52;9.80;99.90
1644;DHT22;46825;51.99869940;8.49421771;2023-11-19T02:17:53;9.80;99.90
1644;DHT22;46825;51.99869940;8.49421771;2023-11-19T02:18:53;9.80;99.90
1644;DHT22;46825;51.99869940;8.49421771;2023-11-19T02:19:54;9.80;99.90
1644;DHT22;46825;51.99869940;8.49421771;2023-11-19T02:20:58;9.80;99.90
1644;DHT22;46825;51.99869940;8.49421771;2023-11-19T02:21:59;9.80;99.90
1644;DHT22;46825;51.99869940;8.49421771;2023-11-19T02:23:01;9.80;99.90
1644;DHT22;46825;51.99869940;8.49421771;2023-11-19T02:24:06;9.80;99.90
1644;DHT22;46825;51.99869940;8.49421771;2023-11-19T02:25:17;9.80;99.90
1644;DHT22;46825;51.99869940;8.49421771;2023-11-19T02:27:02;9.80;99.90
1644;DHT22;46825;51.99869940;8.49421771;2023-11-19T02:28:06;9.80;99.90
1644;DHT22;46825;51.99869940;8.49421771;2023-11-19T02:29:06;10.80;99.90
1644;DHT22;46825;51.99869940;8.49421771;2023-11-19T02:30:08;9.90;99.90
1644;DHT22;46825;51.99869940;8.49421771;2023-11-19T02:31:10;9.90;99.90
1644;DHT22;46825;51.99869940;8.49421771;2023-11-19T02:32:10;10.00;99.90
1644;DHT22;46825;51.99869940;8.49421771;2023-11-19T02:33:13;9.90;99.90
1644;DHT22;46825;51.99869940;8.49421771;2023-11-19T02:34:15;9.90;99.90
1644;DHT22;46825;51.99869940;8.49421771;2023-11-19T02:35:16;9.90;99.90
1644;DHT22;46825;51.99869940;8.49421771;2023-11-19T02:36:17;9.90;99.90
1644;DHT22;46825;51.99869940;8.49421771;2023-11-19T02:37:17;9.90;99.90
1644;DHT22;46825;51.99869940;8.49421771;2023-11-19T02:38:19;9.90;99.90
1644;DHT22;46825;51.99869940;8.49421771;2023-11-19T02:39:22;9.90;99.90
1644;DHT22;46825;51.99869940;8.49421771;2023-11-19T02:40:22;9.90;99.90
1644;DHT22;46825;51.99869940;8.49421771;2023-11-19T02:41:24;10.00;99.90
1644;DHT22;46825;51.99869940;8.49421771;2023-11-19T02:42:25;9.90;99.90
1644;DHT22;46825;51.99869940;8.49421771;2023-11-19T02:43:25;9.90;99.90
1644;DHT22;46825;51.99869940;8.49421771;2023-11-19T02:44:26;9.90;99.90
1644;DHT22;46825;51.99869940;8.49421771;2023-11-19T02:45:30;9.90;99.90
1644;DHT22;46825;51.99869940;8.49421771;2023-11-19T02:46:31;9.90;99.90
1644;DHT22;46825;51.99869940;8.49421771;2023-11-19T02:47:33;9.90;99.90
1644;DHT22;46825;51.99869940;8.49421771;2023-11-19T02:48:37;9.90;99.90
1644;DHT22;46825;51.99869940;8.49421771;2023-11-19T02:49:37;9.90;99.90
1644;DHT22;46825;51.99869940;8.49421771;2023-11-19T02:50:38;10.00;99.90
1644;DHT22;46825;51.99869940;8.49421771;2023-11-19T02:51:38;10.00;99.90
1644;DHT22;46825;51.99869940;8.49421771;2023-11-19T02:52:43;10.00;99.90
1644;DHT22;46825;51.99869940;8.49421771;2023-11-19T02:53:44;10.00;99.90
1644;DHT22;46825;51.99869940;8.49421771;2023-11-19T02:54:48;10.00;99.90
1644;DHT22;46825;51.99869940;8.49421771;2023-11-19T02:55:49;10.00;99.90
1644;DHT22;46825;51.99869940;8.49421771;2023-11-19T02:56:50;9.90;99.90
1644;DHT22;46825;51.99869940;8.49421771;2023-11-19T02:57:55;10.00;99.90
1644;DHT22;46825;51.99869940;8.49421771;2023-11-19T02:58:59;10.00;99.90
1644;DHT22;46825;51.99869940;8.49421771;2023-11-19T02:59:59;9.90;99.90
1644;DHT22;46825;51.99869940;8.49421771;2023-11-19T03:01:00;10.10;99.90
1644;DHT22;46825;51.99869940;8.49421771;2023-11-19T03:02:10;10.10;99.90
1644;DHT22;46825;51.99869940;8.49421771;2023-11-19T03:03:16;10.10;99.90
1644;DHT22;46825;51.99869940;8.49421771;2023-11-19T03:04:23;10.10;99.90
1644;DHT22;46825;51.99869940;8.49421771;2023-11-19T03:05:24;10.10;99.90
1644;DHT22;46825;51.99869940;8.49421771;2023-11-19T03:06:25;10.10;99.90
1644;DHT22;46825;51.99869940;8.49421771;2023-11-19T03:07:26;10.30;99.90
1644;DHT22;46825;51.99869940;8.49421771;2023-11-19T03:08:27;10.10;99.90
1644;DHT22;46825;51.99869940;8.49421771;2023-11-19T03:09:27;10.10;99.90
1644;DHT22;46825;51.99869940;8.49421771;2023-11-19T03:10:29;10.20;99.90
1644;DHT22;46825;51.99869940;8.49421771;2023-11-19T03:11:30;10.20;99.90
1644;DHT22;46825;51.99869940;8.49421771;2023-11-19T03:12:31;10.20;99.90
1644;DHT22;46825;51.99869940;8.49421771;2023-11-19T03:13:31;10.20;99.90
1644;DHT22;46825;51.99869940;8.49421771;2023-11-19T03:14:33;10.20;99.90
1644;DHT22;46825;51.99869940;8.49421771;2023-11-19T03:15:34;10.30;99.90
1644;DHT22;46825;51.99869940;8.49421771;2023-11-19T03:16:35;10.30;99.90
1644;DHT22;46825;51.99869940;8.49421771;2023-11-19T03:17:39;10.20;99.90
1644;DHT22;46825;51.99869940;8.49421771;2023-11-19T03:18:40;10.30;99.90
1644;DHT22;46825;51.99869940;8.49421771;2023-11-19T03:19:41;10.40;99.90
1644;DHT22;46825;51.99869940;8.49421771;2023-11-19T03:20:41;10.30;99.90
1644;DHT22;46825;51.99869940;8.49421771;2023-11-19T03:21:42;10.20;99.90
1644;DHT22;46825;51.99869940;8.49421771;2023-11-19T03:22:42;10.30;99.90
1644;DHT22;46825;51.99869940;8.49421771;2023-11-19T03:23:45;10.30;99.90
1644;DHT22;46825;51.99869940;8.49421771;2023-11-19T03:24:46;10.30;99.90
1644;DHT22;46825;51.99869940;8.49421771;2023-11-19T03:25:47;10.40;99.90
1644;DHT22;46825;51.99869940;8.49421771;2023-11-19T03:26:50;10.40;99.90
1644;DHT22;46825;51.99869940;8.49421771;2023-11-19T03:27:50;10.40;99.90
1644;DHT22;46825;51.99869940;8.49421771;2023-11-19T03:28:51;10.40;99.90
1644;DHT22;46825;51.99869940;8.49421771;2023-11-19T03:29:52;10.40;99.90
1644;DHT22;46825;51.99869940;8.49421771;2023-11-19T03:30:52;10.40;99.90
1644;DHT22;46825;51.99869940;8.49421771;2023-11-19T03:31:53;12.50;99.90
1644;DHT22;46825;51.99869940;8.49421771;2023-11-19T03:32:55;10.40;99.90
1644;DHT22;46825;51.99869940;8.49421771;2023-11-19T03:33:55;10.40;99.90
1644;DHT22;46825;51.99869940;8.49421771;2023-11-19T03:34:56;10.40;99.90
1644;DHT22;46825;51.99869940;8.49421771;2023-11-19T03:35:57;10.40;99.90
1644;DHT22;46825;51.99869940;8.49421771;2023-11-19T03:36:57;10.40;99.90
1644;DHT22;46825;51.99869940;8.49421771;2023-11-19T03:37:58;10.40;99.90
1644;DHT22;46825;51.99869940;8.49421771;2023-11-19T03:38:59;10.40;99.90
1644;DHT22;46825;51.99869940;8.49421771;2023-11-19T03:39:59;10.50;99.90
1644;DHT22;46825;51.99869940;8.49421771;2023-11-19T03:41:00;10.50;99.90
1644;DHT22;46825;51.99869940;8.49421771;2023-11-19T03:42:01;10.50;99.90
1644;DHT22;46825;51.99869940;8.49421771;2023-11-19T03:43:01;10.80;99.90
1644;DHT22;46825;51.99869940;8.49421771;2023-11-19T03:44:04;10.60;99.90
1644;DHT22;46825;51.99869940;8.49421771;2023-11-19T03:45:06;10.60;99.90
1644;DHT22;46825;51.99869940;8.49421771;2023-11-19T03:46:20;10.60;99.90
1644;DHT22;46825;51.99869940;8.49421771;2023-11-19T03:47:21;10.60;99.90
1644;DHT22;46825;51.99869940;8.49421771;2023-11-19T03:48:21;10.60;99.90
1644;DHT22;46825;51.99869940;8.49421771;2023-11-19T03:49:22;10.60;99.90
1644;DHT22;46825;51.99869940;8.49421771;2023-11-19T03:50:24;10.70;99.90
1644;DHT22;46825;51.99869940;8.49421771;2023-11-19T03:51:25;10.60;99.90
1644;DHT22;46825;51.99869940;8.49421771;2023-11-19T03:52:25;10.60;99.90
1644;DHT22;46825;51.99869940;8.49421771;2023-11-19T03:53:27;10.60;99.90
1644;DHT22;46825;51.99869940;8.49421771;2023-11-19T03:54:28;10.80;99.90
1644;DHT22;46825;51.99869940;8.49421771;2023-11-19T03:55:28;10.80;99.90
1644;DHT22;46825;51.99869940;8.49421771;2023-11-19T03:56:29;10.80;99.90
1644;DHT22;46825;51.99869940;8.49421771;2023-11-19T03:57:32;10.80;99.90
1644;DHT22;46825;51.99869940;8.49421771;2023-11-19T03:58:32;10.80;99.90
1644;DHT22;46825;51.99869940;8.49421771;2023-11-19T03:59:33;10.90;99.90
1644;DHT22;46825;51.99869940;8.49421771;2023-11-19T04:00:33;11.00;99.90
1644;DHT22;46825;51.99869940;8.49421771;2023-11-19T04:01:34;11.00;99.90
1644;DHT22;46825;51.99869940;8.49421771;2023-11-19T04:02:35;11.00;99.90
1644;DHT22;46825;51.99869940;8.49421771;2023-11-19T04:03:36;11.00;99.90
1644;DHT22;46825;51.99869940;8.49421771;2023-11-19T04:04:37;10.90;99.90
1644;DHT22;46825;51.99869940;8.49421771;2023-11-19T04:05:39;10.90;99.90
1644;DHT22;46825;51.99869940;8.49421771;2023-11-19T04:06:39;11.00;99.90
1644;DHT22;46825;51.99869940;8.49421771;2023-11-19T04:07:40;11.00;99.90
1644;DHT22;46825;51.99869940;8.49421771;2023-11-19T04:08:40;11.00;99.90
1644;DHT22;46825;51.99869940;8.49421771;2023-11-19T04:09:41;11.00;99.90
1644;DHT22;46825;51.99869940;8.49421771;2023-11-19T04:10:42;11.00;99.90
1644;DHT22;46825;51.99869940;8.49421771;2023-11-19T04:11:42;11.00;99.90
1644;DHT22;46825;51.99869940;8.49421771;2023-11-19T04:12:43;11.00;99.90
1644;DHT22;46825;51.99869940;8.49421771;2023-11-19T04:13:44;11.00;99.90
1644;DHT22;46825;51.99869940;8.49421771;2023-11-19T04:14:44;11.20;99.90
1644;DHT22;46825;51.99869940;8.49421771;2023-11-19T04:15:45;11.10;99.90
1644;DHT22;46825;51.99869940;8.49421771;2023-11-19T04:16:46;11.00;99.90
1644;DHT22;46825;51.99869940;8.49421771;2023-11-19T04:17:47;11.20;99.90
1644;DHT22;46825;51.99869940;8.49421771;2023-11-19T04:18:47;11.20;99.90
1644;DHT22;46825;51.99869940;8.49421771;2023-11-19T04:19:48;11.00;99.90
1644;DHT22;46825;51.99869940;8.49421771;2023-11-19T04:20:48;11.10;99.90
1644;DHT22;46825;51.99869940;8.49421771;2023-11-19T04:21:49;11.00;99.90
1644;DHT22;46825;51.99869940;8.49421771;2023-11-19T04:22:50;11.00;99.90
1644;DHT22;46825;51.99869940;8.49421771;2023-11-19T04:23:51;11.10;99.90
1644;DHT22;46825;51.99869940;8.49421771;2023-11-19T04:24:52;11.10;99.90
1644;DHT22;46825;51.99869940;8.49421771;2023-11-19T04:25:52;11.10;99.90
1644;DHT22;46825;51.99869940;8.49421771;2023-11-19T04:26:53;11.20;99.90
1644;DHT22;46825;51.99869940;8.49421771;2023-11-19T04:27:54;11.10;99.90
1644;DHT22;46825;51.99869940;8.49421771;2023-11-19T04:28:54;11.20;99.90
1644;DHT22;46825;51.99869940;8.49421771;2023-11-19T04:29:55;11.10;99.90
1644;DHT22;46825;51.99869940;8.49421771;2023-11-19T04:30:55;11.10;99.90
1644;DHT22;46825;51.99869940;8.49421771;2023-11-19T04:31:56;11.10;99.90
1644;DHT22;46825;51.99869940;8.49421771;2023-11-19T04:32:57;11.10;99.90
1644;DHT22;46825;51.99869940;8.49421771;2023-11-19T04:33:57;11.20;99.90
1644;DHT22;46825;51.99869940;8.49421771;2023-11-19T04:34:59;11.20;99.90
1644;DHT22;46825;51.99869940;8.49421771;2023-11-19T04:35:59;11.20;99.90
1644;DHT22;46825;51.99869940;8.49421771;2023-11-19T04:37:00;11.20;99.90
1644;DHT22;46825;51.99869940;8.49421771;2023-11-19T04:38:04;11.20;99.90
1644;DHT22;46825;51.99869940;8.49421771;2023-11-19T04:39:05;11.20;99.90
1644;DHT22;46825;51.99869940;8.49421771;2023-11-19T04:40:10;11.20;99.90
1644;DHT22;46825;51.99869940;8.49421771;2023-11-19T04:41:12;11.20;99.90
1644;DHT22;46825;51.99869940;8.49421771;2023-11-19T04:42:12;11.30;99.90
1644;DHT22;46825;51.99869940;8.49421771;2023-11-19T04:43:13;11.20;99.90
1644;DHT22;46825;51.99869940;8.49421771;2023-11-19T04:44:14;11.30;99.90
1644;DHT22;46825;51.99869940;8.49421771;2023-11-19T04:45:16;11.30;99.90
1644;DHT22;46825;51.99869940;8.49421771;2023-11-19T04:46:16;11.30;99.90
1644;DHT22;46825;51.99869940;8.49421771;2023-11-19T04:47:17;11.40;99.90
1644;DHT22;46825;51.99869940;8.49421771;2023-11-19T04:48:17;11.30;99.90
1644;DHT22;46825;51.99869940;8.49421771;2023-11-19T04:49:18;11.30;99.90
1644;DHT22;46825;51.99869940;8.49421771;2023-11-19T04:50:19;11.30;99.90
1644;DHT22;46825;51.99869940;8.49421771;2023-11-19T04:51:19;11.30;99.90
1644;DHT22;46825;51.99869940;8.49421771;2023-11-19T04:52:20;11.30;99.90
1644;DHT22;46825;51.99869940;8.49421771;2023-11-19T04:53:20;11.30;99.90
1644;DHT22;46825;51.99869940;8.49421771;2023-11-19T04:54:21;11.40;99.90
1644;DHT22;46825;51.99869940;8.49421771;2023-11-19T04:55:21;11.30;99.90
1644;DHT22;46825;51.99869940;8.49421771;2023-11-19T04:56:22;11.30;99.90
1644;DHT22;46825;51.99869940;8.49421771;2023-11-19T04:57:23;11.30;99.90
1644;DHT22;46825;51.99869940;8.49421771;2023-11-19T04:58:24;11.20;99.90
1644;DHT22;46825;51.99869940;8.49421771;2023-11-19T04:59:24;11.30;99.90
1644;DHT22;46825;51.99869940;8.49421771;2023-11-19T05:00:25;11.30;99.90
1644;DHT22;46825;51.99869940;8.49421771;2023-11-19T05:01:26;11.20;99.90
1644;DHT22;46825;51.99869940;8.49421771;2023-11-19T05:02:26;11.20;99.90
1644;DHT22;46825;51.99869940;8.49421771;2023-11-19T05:03:27;13.00;99.90
1644;DHT22;46825;51.99869940;8.49421771;2023-11-19T05:04:27;11.10;99.90
1644;DHT22;46825;51.99869940;8.49421771;2023-11-19T05:05:28;11.20;99.90
1644;DHT22;46825;51.99869940;8.49421771;2023-11-19T05:06:30;11.20;99.90
1644;DHT22;46825;51.99869940;8.49421771;2023-11-19T05:07:31;11.10;99.90
1644;DHT22;46825;51.99869940;8.49421771;2023-11-19T05:08:31;11.10;99.90
1644;DHT22;46825;51.99869940;8.49421771;2023-11-19T05:09:32;10.90;99.90
1644;DHT22;46825;51.99869940;8.49421771;2023-11-19T05:10:33;11.00;99.90
1644;DHT22;46825;51.99869940;8.49421771;2023-11-19T05:11:34;11.00;99.90
1644;DHT22;46825;51.99869940;8.49421771;2023-11-19T05:12:35;11.00;99.90
1644;DHT22;46825;51.99869940;8.49421771;2023-11-19T05:13:36;11.20;99.90
1644;DHT22;46825;51.99869940;8.49421771;2023-11-19T05:14:36;11.00;99.90
1644;DHT22;46825;51.99869940;8.49421771;2023-11-19T05:15:37;11.00;99.90
1644;DHT22;46825;51.99869940;8.49421771;2023-11-19T05:16:41;10.90;99.90
1644;DHT22;46825;51.99869940;8.49421771;2023-11-19T05:17:43;11.00;99.90
1644;DHT22;46825;51.99869940;8.49421771;2023-11-19T05:18:43;11.10;99.90
1644;DHT22;46825;51.99869940;8.49421771;2023-11-19T05:19:45;11.00;99.90
1644;DHT22;46825;51.99869940;8.49421771;2023-11-19T05:20:46;11.00;99.90
1644;DHT22;46825;51.99869940;8.49421771;2023-11-19T05:21:46;11.00;99.90
1644;DHT22;46825;51.99869940;8.49421771;2023-11-19T05:22:47;11.00;99.90
1644;DHT22;46825;51.99869940;8.49421771;2023-11-19T05:23:48;11.10;99.90
1644;DHT22;46825;51.99869940;8.49421771;2023-11-19T05:24:48;11.00;99.90
1644;DHT22;46825;51.99869940;8.49421771;2023-11-19T05:25:49;11.00;99.90
1644;DHT22;46825;51.99869940;8.49421771;2023-11-19T05:26:51;11.10;99.90
1644;DHT22;46825;51.99869940;8.49421771;2023-11-19T05:27:53;11.10;99.90
1644;DHT22;46825;51.99869940;8.49421771;2023-11-19T05:28:53;11.10;99.90
1644;DHT22;46825;51.99869940;8.49421771;2023-11-19T05:29:54;11.10;99.90
1644;DHT22;46825;51.99869940;8.49421771;2023-11-19T05:30:54;11.10;99.90
1644;DHT22;46825;51.99869940;8.49421771;2023-11-19T05:31:55;11.10;99.90
1644;DHT22;46825;51.99869940;8.49421771;2023-11-19T05:32:56;11.10;99.90
1644;DHT22;46825;51.99869940;8.49421771;2023-11-19T05:33:57;11.10;99.90
1644;DHT22;46825;51.99869940;8.49421771;2023-11-19T05:34:57;11.10;99.90
1644;DHT22;46825;51.99869940;8.49421771;2023-11-19T05:35:58;11.10;99.90
1644;DHT22;46825;51.99869940;8.49421771;2023-11-19T05:36:58;11.10;99.90
1644;DHT22;46825;51.99869940;8.49421771;2023-11-19T05:37:59;11.10;99.90
1644;DHT22;46825;51.99869940;8.49421771;2023-11-19T05:38:59;11.20;99.90
1644;DHT22;46825;51.99869940;8.49421771;2023-11-19T05:40:00;11.00;99.90
1644;DHT22;46825;51.99869940;8.49421771;2023-11-19T05:41:04;11.00;99.90